KCKM/CKM METAR and TAF weather

Enter ICAO airport designator
Station Type Date Time Source
KCKM METAR 2019/12/06 04:15 UTC NOAA

KCKM 060415Z AUTO 15006KT 10SM 13/06 A3005 RMK A01


Station Type Date Time Source
KCKM Decoded METAR 2019/12/06 04:15 UTC NOAA

Station name not available
Dec 05, 2019 - 11:15 PM EST / 2019.12.06 0415 UTC
Wind: from the SSE (150 degrees) at 7 MPH (6 KT):0
Visibility: 10 mile(s):0
Temperature: 55 F (13 C)
Dew Point: 42 F (6 C)
Relative Humidity: 62%
Pressure (altimeter): 30.05 in. Hg (1017 hPa)
ob: KCKM 060415Z AUTO 15006KT 10SM 13/06 A3005 RMK A01
cycle: 4

Station Type Date Time Source
KCKM TAF UTC NOAA

Error!

Example: see airport list